Time;durP1;ratioP1;P1;durP2;ratioP2;P2;SDS_P1;SDS_P2;PMS_P1;PMS_P2;Temp;Humidity;BMP_temperature;BMP_pressure;BME280_temperature;BME280_humidity;BME280_pressure;Samples;Min_cycle;Max_cycle;Signal;HPM_P1;HPM_P2
2022/12/25 00:01:10;;;;;;;304.83;120.05;;;;;;;8.69;100.00;101081.63;5053709;28;20120;-81
2022/12/25 00:03:36;;;;;;;322.42;121.40;;;;;;;8.72;100.00;101089.28;5053998;28;20033;-79
2022/12/25 00:06:02;;;;;;;309.65;119.30;;;;;;;8.91;100.00;101079.72;5054136;28;20065;-82
2022/12/25 00:08:28;;;;;;;296.42;115.13;;;;;;;9.01;100.00;101077.94;5053405;28;20060;-80
2022/12/25 00:11:05;;;;;;;282.92;110.55;;;;;;;8.84;100.00;101079.44;5035756;28;20056;-81
2022/12/25 00:13:31;;;;;;;286.92;113.85;;;;;;;8.88;100.00;101072.09;5053843;28;20060;-82
2022/12/25 00:15:57;;;;;;;280.05;110.25;;;;;;;8.99;100.00;101064.00;5054130;28;20052;-81
2022/12/25 00:18:23;;;;;;;269.92;109.80;;;;;;;8.97;100.00;101060.66;5053368;28;20040;-82
2022/12/25 00:20:58;;;;;;;273.48;111.57;;;;;;;8.95;100.00;101067.91;5054716;28;20051;-81
2022/12/25 00:23:25;;;;;;;278.17;111.63;;;;;;;8.85;100.00;101065.25;5054166;28;20032;-81
2022/12/25 00:25:51;;;;;;;298.30;111.47;;;;;;;8.84;100.00;101060.94;5065742;28;20040;-81
2022/12/25 00:28:17;;;;;;;263.67;107.10;;;;;;;9.05;100.00;101061.63;5064063;28;20034;-82
2022/12/25 00:30:43;;;;;;;257.17;106.88;;;;;;;9.03;100.00;101062.75;5056444;28;20041;-81
2022/12/25 00:33:08;;;;;;;263.55;108.80;;;;;;;8.96;100.00;101062.47;5054115;28;20071;-82
2022/12/25 00:35:34;;;;;;;263.05;108.65;;;;;;;8.88;100.00;101061.50;5053153;28;20061;-81
2022/12/25 00:37:59;;;;;;;265.45;106.25;;;;;;;8.90;100.00;101057.75;5053565;28;20036;-82
2022/12/25 00:40:25;;;;;;;264.45;105.43;;;;;;;9.02;100.00;101069.84;5053142;28;20121;-82
2022/12/25 00:42:51;;;;;;;254.60;105.43;;;;;;;9.13;100.00;101063.59;5053103;28;20507;-79
2022/12/25 00:45:16;;;;;;;249.77;104.78;;;;;;;9.22;100.00;101068.03;5053098;28;20025;-82
2022/12/25 00:47:42;;;;;;;254.00;106.00;;;;;;;9.13;100.00;101068.88;5053606;28;20055;-83
2022/12/25 00:50:10;;;;;;;256.92;103.78;;;;;;;9.09;100.00;101072.78;5053193;28;20037;-83
2022/12/25 00:52:36;;;;;;;252.52;104.97;;;;;;;9.08;100.00;101071.94;5054499;28;20414;-83
2022/12/25 00:55:01;;;;;;;247.65;101.20;;;;;;;9.19;100.00;101078.91;5054725;28;20029;-81
2022/12/25 00:57:27;;;;;;;256.27;103.05;;;;;;;9.09;100.00;101083.34;5059644;28;20029;-82
2022/12/25 00:59:52;;;;;;;259.20;104.07;;;;;;;8.95;100.00;101081.94;5066008;28;20040;-81
2022/12/25 01:02:27;;;;;;;257.80;105.10;;;;;;;8.91;100.00;101074.44;5063952;28;20087;-83
2022/12/25 01:04:55;;;;;;;244.43;99.85;;;;;;;9.03;100.00;101078.63;5055220;28;20091;-83
2022/12/25 01:07:22;;;;;;;255.63;101.45;;;;;;;9.07;100.00;101077.38;5054456;28;20037;-81
2022/12/25 01:12:35;;;;;;;255.85;103.43;;;;;;;8.93;100.00;101077.78;5058208;28;20047;-81
2022/12/25 01:15:01;;;;;;;257.10;103.13;;;;;;;8.94;100.00;101079.47;5057975;28;20036;-82
2022/12/25 01:17:26;;;;;;;281.00;105.10;;;;;;;8.79;100.00;101085.13;5057735;28;20037;-83
2022/12/25 01:19:52;;;;;;;269.95;102.57;;;;;;;8.95;100.00;101094.34;5057888;28;20029;-82
2022/12/25 01:22:17;;;;;;;283.40;103.05;;;;;;;8.74;100.00;101095.28;5058488;28;20037;-82
2022/12/25 01:24:43;;;;;;;300.20;103.40;;;;;;;8.91;100.00;101090.31;5058823;28;20041;-84
2022/12/25 01:27:10;;;;;;;367.73;102.40;;;;;;;8.85;100.00;101090.84;5059614;28;20159;-80
2022/12/25 01:29:36;;;;;;;277.73;101.97;;;;;;;8.85;100.00;101102.25;5059872;28;20082;-83
2022/12/25 01:32:02;;;;;;;356.55;104.68;;;;;;;8.78;100.00;101107.25;5057898;28;20043;-83
2022/12/25 01:34:28;;;;;;;307.08;105.22;;;;;;;8.91;100.00;101107.00;5057610;28;20024;-81
2022/12/25 01:36:54;;;;;;;283.20;100.95;;;;;;;8.99;100.00;101108.94;5056932;28;20029;-81
2022/12/25 01:39:19;;;;;;;324.13;104.97;;;;;;;8.88;100.00;101122.31;5057305;28;20483;-81
2022/12/25 01:41:46;;;;;;;328.95;104.55;;;;;;;8.87;100.00;101116.19;5038975;28;20029;-82
2022/12/25 01:44:15;;;;;;;367.10;104.65;;;;;;;8.87;100.00;101125.91;5056475;28;20036;-81
2022/12/25 01:46:42;;;;;;;367.88;106.95;;;;;;;8.81;100.00;101122.84;5056056;28;20135;-81
2022/12/25 01:49:15;;;;;;;310.58;100.80;;;;;;;8.79;100.00;101119.50;5056154;28;20044;-81
2022/12/25 01:51:45;;;;;;;498.30;109.20;;;;;;;8.63;100.00;101124.47;5026606;28;20093;-83
2022/12/25 01:54:16;;;;;;;376.45;106.57;;;;;;;8.80;100.00;101125.63;5042306;28;20115;-82
2022/12/25 01:56:45;;;;;;;336.13;103.47;;;;;;;8.69;100.00;101131.84;5057831;28;20176;-83
2022/12/25 01:59:15;;;;;;;363.25;108.95;;;;;;;8.63;100.00;101126.25;5039122;28;20540;-80
2022/12/25 02:01:41;;;;;;;328.15;109.00;;;;;;;8.69;100.00;101129.19;5022489;28;20496;-82
2022/12/25 02:04:44;;;;;;;431.25;114.38;;;;;;;8.75;100.00;101120.72;5056839;28;20132;-81
2022/12/25 02:07:14;;;;;;;373.75;111.95;;;;;;;8.72;100.00;101128.94;5061702;28;20449;-81
2022/12/25 02:09:41;;;;;;;492.90;112.97;;;;;;;8.67;100.00;101136.44;5060330;28;20041;-80
2022/12/25 02:12:11;;;;;;;446.52;114.70;;;;;;;8.61;100.00;101134.34;5058190;28;20449;-81
2022/12/25 02:14:37;;;;;;;368.63;113.82;;;;;;;8.56;100.00;101128.59;5058841;28;20040;-80
2022/12/25 02:17:29;;;;;;;649.38;118.05;;;;;;;8.59;100.00;101136.25;5059561;28;20037;-81
2022/12/25 02:19:58;;;;;;;;;;;;;;;8.66;100.00;101133.91;5059160;28;20171;-82
2022/12/25 02:22:35;;;;;;;520.33;110.80;;;;;;;8.69;100.00;101134.47;5061040;28;19916;-81
2022/12/25 02:25:12;;;;;;;451.20;112.90;;;;;;;8.74;100.00;101132.28;5061648;28;20029;-83
2022/12/25 02:27:50;;;;;;;639.95;113.68;;;;;;;8.64;100.00;101126.16;5062172;28;20045;-81
2022/12/25 02:30:16;;;;;;;448.38;108.20;;;;;;;8.61;100.00;101122.94;5061232;28;20395;-81
2022/12/25 02:35:50;;;;;;;569.75;115.70;;;;;;;8.57;100.00;101145.31;5058128;28;20029;-81
2022/12/25 02:38:27;;;;;;;651.22;111.80;;;;;;;8.49;100.00;101138.03;5056885;28;20043;-81
2022/12/25 02:40:58;;;;;;;677.72;113.47;;;;;;;8.51;100.00;101136.13;5059876;28;20033;-81
2022/12/25 03:11:29;;;;;;;378.65;104.45;;;;;;;8.88;100.00;101143.44;5076435;28;20039;-81
2022/12/25 03:11:43;;;;;;;382.10;100.55;;;;;;;8.84;100.00;101129.66;5075815;28;20119;-84
2022/12/25 03:16:57;;;;;;;283.45;94.68;;;;;;;8.98;100.00;101139.00;5076659;28;20078;-80
2022/12/25 03:28:00;;;;;;;284.42;93.07;;;;;;;8.95;100.00;101126.88;5075548;28;20089;-81
2022/12/25 04:37:53;;;;;;;282.42;96.30;;;;;;;8.71;100.00;101151.06;5058229;28;20078;-81
2022/12/25 04:40:18;;;;;;;283.63;93.60;;;;;;;8.82;100.00;101150.94;5058434;28;20032;-82
2022/12/25 04:42:44;;;;;;;276.17;94.20;;;;;;;8.92;100.00;101152.75;5037882;28;20047;-79
2022/12/25 04:45:10;;;;;;;269.30;93.65;;;;;;;8.85;100.00;101151.66;5056073;28;20166;-81
2022/12/25 04:47:35;;;;;;;258.58;93.15;;;;;;;8.93;100.00;101157.06;5055070;28;20071;-79
2022/12/25 04:50:01;;;;;;;253.80;90.65;;;;;;;9.03;100.00;101163.22;5054399;28;20028;-82
2022/12/25 04:52:26;;;;;;;249.73;92.38;;;;;;;8.93;100.00;101151.78;5037072;28;20032;-81
2022/12/25 04:54:52;;;;;;;251.90;92.22;;;;;;;8.85;100.00;101154.28;5037030;28;20541;-82
2022/12/25 04:57:17;;;;;;;235.05;88.13;;;;;;;9.01;100.00;101149.31;5055343;28;20061;-83
2022/12/25 04:59:43;;;;;;;241.50;91.30;;;;;;;8.98;100.00;101149.59;5055171;28;20037;-81
2022/12/25 05:02:08;;;;;;;221.93;84.07;;;;;;;9.14;100.00;101155.19;5054993;28;20021;-83
2022/12/25 05:04:34;;;;;;;210.43;82.97;;;;;;;9.21;100.00;101151.00;5054887;28;20551;-81
2022/12/25 05:06:59;;;;;;;199.10;85.05;;;;;;;9.29;100.00;101156.44;5054350;28;20041;-82
2022/12/25 05:09:25;;;;;;;221.88;87.72;;;;;;;9.25;100.00;101160.31;5055342;28;20139;-82
2022/12/25 05:11:51;;;;;;;199.75;82.60;;;;;;;9.18;100.00;101160.03;5055032;28;20480;-81
2022/12/25 05:14:17;;;;;;;211.90;85.22;;;;;;;9.02;100.00;101164.19;5054989;28;20083;-81
2022/12/25 05:16:42;;;;;;;204.75;83.50;;;;;;;9.08;100.00;101153.91;5054976;28;20100;-81
2022/12/25 05:19:08;;;;;;;214.32;85.00;;;;;;;8.98;100.00;101160.16;5037466;28;20045;-80
2022/12/25 05:21:33;;;;;;;218.27;86.75;;;;;;;8.85;100.00;101155.09;5054921;28;20116;-82
2022/12/25 05:23:59;;;;;;;216.38;87.07;;;;;;;8.81;100.00;101159.00;5054491;28;20057;-81
2022/12/25 05:26:26;;;;;;;219.35;86.63;;;;;;;8.81;100.00;101153.72;5055335;28;20068;-81
2022/12/25 05:28:52;;;;;;;218.82;86.18;;;;;;;8.92;100.00;101158.03;5055014;28;20517;-82
2022/12/25 05:31:20;;;;;;;227.77;87.38;;;;;;;8.93;100.00;101165.00;5061834;28;20072;-81
2022/12/25 05:33:49;;;;;;;273.08;94.55;;;;;;;8.96;100.00;101162.09;5067870;28;20368;-80
2022/12/25 05:36:14;;;;;;;313.70;97.88;;;;;;;8.91;100.00;101165.16;5062633;28;20041;-82
2022/12/25 05:38:40;;;;;;;318.90;100.57;;;;;;;8.97;100.00;101158.47;5055599;28;20033;-82
2022/12/25 05:41:05;;;;;;;408.17;99.07;;;;;;;8.93;100.00;101167.66;5054690;28;20090;-82
2022/12/25 05:43:31;;;;;;;365.75;98.82;;;;;;;8.81;100.00;101157.22;5054625;28;20033;-80
2022/12/25 05:45:56;;;;;;;353.30;98.65;;;;;;;8.88;100.00;101169.88;5054526;28;20037;-82
2022/12/25 05:48:22;;;;;;;360.83;99.93;;;;;;;8.77;100.00;101169.00;5054700;28;20037;-82
2022/12/25 05:50:47;;;;;;;350.60;97.68;;;;;;;8.82;100.00;101166.78;5054896;28;20044;-82
2022/12/25 05:53:15;;;;;;;327.17;96.93;;;;;;;8.94;100.00;101169.34;5055858;28;20049;-81
2022/12/25 05:55:42;;;;;;;319.83;96.68;;;;;;;8.94;100.00;101166.69;5057526;28;20101;-83
2022/12/25 05:58:09;;;;;;;315.00;93.70;;;;;;;8.97;100.00;101182.28;5057353;28;20561;-83
2022/12/25 06:00:36;;;;;;;303.38;94.78;;;;;;;8.94;100.00;101175.47;5056712;28;20029;-83
2022/12/25 06:03:02;;;;;;;383.27;97.60;;;;;;;8.76;100.00;101172.63;5056387;28;20033;-81
2022/12/25 06:05:28;;;;;;;334.27;99.75;;;;;;;8.72;100.00;101170.38;5057414;28;20033;-81
2022/12/25 06:07:53;;;;;;;327.88;99.68;;;;;;;8.75;100.00;101173.59;5059624;28;20120;-82
2022/12/25 06:10:19;;;;;;;330.90;100.13;;;;;;;8.77;100.00;101174.31;5060392;28;20037;-81
2022/12/25 06:12:44;;;;;;;323.80;103.05;;;;;;;8.80;100.00;101174.03;5059638;28;20033;-83
2022/12/25 06:15:10;;;;;;;321.85;99.57;;;;;;;8.83;100.00;101175.56;5059742;28;20025;-82
2022/12/25 06:17:36;;;;;;;312.35;96.35;;;;;;;8.88;100.00;101169.88;5059988;28;20067;-81
2022/12/25 06:20:02;;;;;;;329.35;100.50;;;;;;;8.87;100.00;101173.50;5060696;28;20033;-81
2022/12/25 06:22:32;;;;;;;311.88;99.07;;;;;;;8.79;100.00;101177.63;5059508;28;20488;-82
2022/12/25 06:24:57;;;;;;;296.42;95.53;;;;;;;8.78;100.00;101175.94;5040505;28;20083;-81
2022/12/25 06:27:23;;;;;;;267.02;88.97;;;;;;;8.71;100.00;101177.50;5039131;28;20168;-84
2022/12/25 06:29:49;;;;;;;259.88;89.72;;;;;;;8.60;100.00;101187.31;5057357;28;20070;-82
2022/12/25 06:32:14;;;;;;;244.98;88.50;;;;;;;8.74;100.00;101192.22;5057059;28;20037;-82
2022/12/25 06:34:40;;;;;;;243.18;84.35;;;;;;;8.80;100.00;101178.47;5055827;28;20036;-83
2022/12/25 06:37:05;;;;;;;230.93;80.25;;;;;;;8.93;100.00;101183.50;5040080;28;20407;-80
2022/12/25 06:39:31;;;;;;;216.68;79.75;;;;;;;9.06;100.00;101184.09;5057466;28;20443;-85
2022/12/25 06:41:57;;;;;;;214.48;79.65;;;;;;;9.05;100.00;101182.44;5056837;28;20033;-81
2022/12/25 06:44:22;;;;;;;220.93;83.60;;;;;;;9.08;100.00;101182.19;5055902;28;20115;-85
2022/12/25 06:46:48;;;;;;;216.85;79.82;;;;;;;9.06;100.00;101189.38;5056036;28;20036;-82
2022/12/25 06:49:13;;;;;;;224.30;79.60;;;;;;;9.02;100.00;101187.97;5056343;28;20033;-84
2022/12/25 06:51:39;;;;;;;205.13;79.13;;;;;;;9.11;100.00;101182.75;5057850;28;20033;-79
2022/12/25 06:54:04;;;;;;;208.65;77.15;;;;;;;9.25;100.00;101194.69;5062743;28;20534;-83
2022/12/25 06:56:32;;;;;;;216.00;80.60;;;;;;;9.13;100.00;101186.06;5062550;28;20036;-82
2022/12/25 06:59:00;;;;;;;196.02;76.93;;;;;;;9.24;100.00;101204.47;5061048;28;20057;-82
2022/12/25 07:01:47;;;;;;;201.68;79.30;;;;;;;9.06;100.00;101192.03;5059089;28;20062;-78
2022/12/25 07:04:15;;;;;;;207.65;79.93;;;;;;;9.13;100.00;101198.44;5057311;28;20037;-86
2022/12/25 07:06:40;;;;;;;199.38;77.75;;;;;;;9.18;100.00;101210.28;5057372;28;20036;-82
2022/12/25 07:09:06;;;;;;;213.57;82.13;;;;;;;9.13;100.00;101203.75;5060756;28;20116;-84
2022/12/25 07:11:31;;;;;;;199.32;77.63;;;;;;;8.98;100.00;101215.69;5047340;28;20102;-86
2022/12/25 07:13:57;;;;;;;208.93;78.95;;;;;;;8.93;100.00;101215.22;5063542;28;20036;-84
2022/12/25 07:16:22;;;;;;;201.23;79.50;;;;;;;8.93;100.00;101225.81;5065451;28;20487;-87
2022/12/25 07:18:48;;;;;;;209.13;80.57;;;;;;;8.96;100.00;101225.53;5043615;28;20040;-85
2022/12/25 07:21:16;;;;;;;211.75;81.45;;;;;;;8.95;100.00;101229.97;5060863;28;20033;-89
2022/12/25 07:23:44;;;;;;;195.43;77.40;;;;;;;8.87;100.00;101226.34;5059381;28;20089;-84
2022/12/25 07:26:12;;;;;;;210.65;82.00;;;;;;;8.88;100.00;101228.03;5058765;28;20029;-82
2022/12/25 07:28:38;;;;;;;200.65;78.97;;;;;;;8.82;100.00;101230.22;5062305;28;20086;-86
2022/12/25 07:31:07;;;;;;;198.52;76.95;;;;;;;8.90;100.00;101236.66;5058656;28;20036;-88
2022/12/25 07:33:33;;;;;;;211.95;83.40;;;;;;;8.87;100.00;101236.91;5061608;28;20044;-87
2022/12/25 07:35:59;;;;;;;208.35;82.85;;;;;;;8.79;100.00;101241.06;5042745;28;20033;-86
2022/12/25 07:38:25;;;;;;;212.00;81.05;;;;;;;8.88;100.00;101238.59;5059391;28;20052;-84
2022/12/25 07:40:51;;;;;;;204.80;80.45;;;;;;;8.76;100.00;101240.50;5058592;28;20491;-88
2022/12/25 07:43:17;;;;;;;203.65;80.97;;;;;;;8.99;100.00;101244.63;5042272;28;20043;-86
2022/12/25 07:45:43;;;;;;;190.80;78.03;;;;;;;9.15;100.00;101252.03;5059401;28;20036;-83
2022/12/25 07:48:08;;;;;;;196.23;78.35;;;;;;;9.27;100.00;101257.09;5040749;28;20033;-84
2022/12/25 07:50:34;;;;;;;187.48;76.50;;;;;;;9.27;100.00;101259.75;5059297;28;20036;-86
2022/12/25 07:53:02;;;;;;;194.40;77.60;;;;;;;9.14;100.00;101260.94;5056158;28;20407;-84
2022/12/25 07:55:27;;;;;;;179.80;74.32;;;;;;;9.14;100.00;101255.66;5059240;28;20025;-82
2022/12/25 07:57:53;;;;;;;182.93;76.00;;;;;;;9.09;100.00;101263.16;5056294;28;20037;-85
2022/12/25 08:00:19;;;;;;;181.45;75.38;;;;;;;9.05;100.00;101267.06;5061807;28;20059;-85
2022/12/25 08:02:51;;;;;;;181.82;75.45;;;;;;;9.09;100.00;101263.16;5061767;28;20089;-85
2022/12/25 08:05:19;;;;;;;166.65;70.47;;;;;;;9.27;100.00;101270.31;5052725;28;20136;-85
2022/12/25 08:07:45;;;;;;;177.90;73.43;;;;;;;9.28;100.00;101274.63;5041499;28;20041;-87
2022/12/25 08:10:10;;;;;;;167.55;70.00;;;;;;;9.49;100.00;101271.88;5057066;28;20074;-85
2022/12/25 08:12:36;;;;;;;148.88;65.50;;;;;;;9.30;100.00;101279.78;5055890;28;20049;-85
2022/12/25 08:15:03;;;;;;;156.00;66.75;;;;;;;9.00;100.00;101279.81;5038938;28;20048;-87
2022/12/25 08:17:29;;;;;;;169.95;73.43;;;;;;;8.98;100.00;101281.78;5059017;28;20051;-82
2022/12/25 08:19:55;;;;;;;181.38;75.82;;;;;;;8.83;100.00;101284.78;5056329;28;20033;-84
2022/12/25 08:22:21;;;;;;;174.05;73.32;;;;;;;8.78;100.00;101291.44;5039853;28;20052;-84
2022/12/25 08:24:46;;;;;;;180.75;77.10;;;;;;;8.71;100.00;101295.56;5057373;28;20532;-83
2022/12/25 08:27:12;;;;;;;180.90;73.38;;;;;;;8.64;100.00;101304.97;5055324;28;20044;-85
2022/12/25 08:29:38;;;;;;;182.40;75.38;;;;;;;8.64;100.00;101308.47;5055282;28;20029;-83
2022/12/25 08:32:04;;;;;;;165.45;71.07;;;;;;;8.67;100.00;101307.34;5054859;28;20080;-81
2022/12/25 08:34:30;;;;;;;162.73;69.05;;;;;;;8.70;100.00;101310.56;5055128;28;20507;-81
2022/12/25 08:36:55;;;;;;;170.93;69.72;;;;;;;8.71;100.00;101316.69;5052971;28;20063;-82
2022/12/25 08:39:21;;;;;;;168.23;70.95;;;;;;;8.71;100.00;101322.00;5063333;28;20411;-83
2022/12/25 08:41:46;;;;;;;146.65;67.38;;;;;;;8.72;100.00;101327.13;5073176;28;20083;-83
2022/12/25 08:44:12;;;;;;;147.85;64.88;;;;;;;8.87;100.00;101324.16;5054879;28;20040;-82
2022/12/25 08:46:38;;;;;;;151.57;67.30;;;;;;;8.82;100.00;101327.19;5062875;28;20616;-82
2022/12/25 08:49:04;;;;;;;145.10;66.03;;;;;;;8.87;100.00;101342.66;5057217;28;20094;-86
2022/12/25 08:51:30;;;;;;;141.10;64.57;;;;;;;9.02;100.00;101336.03;5055917;28;20041;-85
2022/12/25 08:53:58;;;;;;;151.98;68.90;;;;;;;9.01;100.00;101334.38;5056275;28;20143;-81
2022/12/25 08:56:24;;;;;;;147.75;65.78;;;;;;;9.14;100.00;101340.28;5031156;28;20025;-81
2022/12/25 08:58:50;;;;;;;140.73;64.82;;;;;;;8.98;100.00;101356.63;5050676;28;20040;-83
2022/12/25 09:01:21;;;;;;;148.75;64.95;;;;;;;9.16;100.00;101351.56;5041398;28;20037;-81
2022/12/25 09:03:47;;;;;;;148.93;68.10;;;;;;;9.13;100.00;101339.44;5055600;28;20079;-82
2022/12/25 09:06:37;;;;;;;156.88;69.43;;;;;;;9.02;100.00;101352.75;5031238;28;20041;-80
2022/12/25 09:09:12;;;;;;;154.48;71.47;;;;;;;9.06;100.00;101359.44;5052099;28;20088;-83
2022/12/25 09:11:38;;;;;;;156.23;69.10;;;;;;;9.06;100.00;101374.47;5034210;28;20500;-82
2022/12/25 09:14:04;;;;;;;155.95;69.68;;;;;;;9.23;100.00;101371.22;5042467;28;20031;-85
2022/12/25 09:16:29;;;;;;;155.38;69.45;;;;;;;9.18;100.00;101362.88;5055015;28;20033;-85
2022/12/25 09:18:57;;;;;;;156.10;69.68;;;;;;;9.25;100.00;101377.19;5056368;28;20086;-85
2022/12/25 09:21:22;;;;;;;158.70;68.18;;;;;;;9.20;100.00;101382.91;5040528;28;20041;-85
2022/12/25 09:23:48;;;;;;;141.52;64.68;;;;;;;9.28;100.00;101376.94;5055146;28;20033;-83
2022/12/25 09:26:16;;;;;;;149.25;64.05;;;;;;;9.25;100.00;101380.69;5037380;28;20119;-87
2022/12/25 09:28:45;;;;;;;148.23;66.70;;;;;;;9.41;100.00;101369.63;5029143;28;20148;-84
2022/12/25 09:31:10;;;;;;;149.43;67.60;;;;;;;9.35;100.00;101372.78;5020190;28;20041;-85
2022/12/25 09:33:36;;;;;;;159.75;68.78;;;;;;;9.24;100.00;101378.19;5002183;28;20548;-84
2022/12/25 09:36:04;;;;;;;158.20;69.38;;;;;;;9.31;100.00;101369.56;5020696;28;20042;-84
2022/12/25 09:38:30;;;;;;;151.25;68.13;;;;;;;9.27;100.00;101380.56;5021937;28;20042;-83
2022/12/25 09:41:30;;;;;;;153.70;67.43;;;;;;;9.17;100.00;101377.03;5044413;28;20067;-80
2022/12/25 09:44:09;;;;;;;148.88;66.65;;;;;;;9.14;100.00;101366.72;5027815;28;20037;-87
2022/12/25 09:46:42;;;;;;;153.73;70.80;;;;;;;9.11;100.00;101383.72;5047024;28;20033;-88
2022/12/25 09:49:29;;;;;;;150.10;68.35;;;;;;;9.12;100.00;101376.59;5038412;28;20092;-85
2022/12/25 09:52:04;;;;;;;157.00;69.97;;;;;;;9.14;100.00;101372.03;5049109;28;20388;-82
2022/12/25 09:54:45;;;;;;;147.38;65.97;;;;;;;9.19;100.00;101381.22;5043555;28;20038;-81
2022/12/25 09:57:12;;;;;;;158.98;69.38;;;;;;;9.21;100.00;101392.50;5039989;28;20089;-83
2022/12/25 09:59:42;;;;;;;169.00;72.25;;;;;;;9.30;100.00;101375.84;5039523;28;20064;-81
2022/12/25 10:02:31;;;;;;;156.18;69.07;;;;;;;9.30;100.00;101372.38;5058055;28;20104;-82
2022/12/25 10:05:26;;;;;;;156.57;67.00;;;;;;;9.28;100.00;101374.28;5046500;28;20043;-83
2022/12/25 10:07:58;;;;;;;181.13;71.47;;;;;;;9.26;100.00;101374.44;5060874;28;20038;-83
2022/12/25 10:10:38;;;;;;;163.57;70.50;;;;;;;9.28;100.00;101369.00;5047365;28;20044;-82
2022/12/25 10:13:19;;;;;;;158.57;70.07;;;;;;;9.35;100.00;101360.41;5051943;28;20064;-82
2022/12/25 10:16:06;;;;;;;150.10;67.13;;;;;;;9.57;100.00;101359.38;5054198;28;20030;-83
2022/12/25 10:18:54;;;;;;;157.88;68.82;;;;;;;9.79;100.00;101356.50;5058736;28;20080;-87
2022/12/25 10:21:22;;;;;;;145.38;65.68;;;;;;;9.81;100.00;101357.19;5042521;28;20041;-82
2022/12/25 10:24:04;;;;;;;133.73;60.00;;;;;;;9.92;100.00;101358.03;5059671;28;20038;-84
2022/12/25 10:26:31;;;;;;;129.20;58.05;;;;;;;9.95;100.00;101363.06;5056358;28;20097;-83
2022/12/25 10:29:15;;;;;;;114.30;56.97;;;;;;;9.94;100.00;101358.75;5027898;28;20100;-83
2022/12/25 10:31:45;;;;;;;124.43;56.55;;;;;;;9.88;100.00;101363.59;5037960;28;20041;-84
2022/12/25 10:34:14;;;;;;;122.85;53.70;;;;;;;9.85;100.00;101355.09;5024073;28;20057;-84
2022/12/25 10:36:43;;;;;;;112.20;51.92;;;;;;;10.16;100.00;101361.16;5032848;28;20056;-84
2022/12/25 10:39:31;;;;;;;115.32;53.72;;;;;;;10.21;100.00;101358.94;5039373;28;20124;-85
2022/12/25 10:42:17;;;;;;;122.53;53.95;;;;;;;10.29;100.00;101356.44;5041148;28;20038;-84
2022/12/25 10:45:03;;;;;;;115.80;54.17;;;;;;;10.44;100.00;101364.81;5042689;28;20403;-86
2022/12/25 10:47:31;;;;;;;130.77;56.28;;;;;;;10.51;100.00;101377.31;5023796;28;20419;-85
2022/12/25 10:49:58;;;;;;;122.70;55.47;;;;;;;10.63;100.00;101370.91;5053290;28;20030;-85
2022/12/25 10:52:26;;;;;;;120.75;54.45;;;;;;;10.47;100.00;101372.47;5039159;28;20068;-86
2022/12/25 10:54:53;;;;;;;118.15;52.50;;;;;;;10.40;100.00;101368.69;5038253;28;20116;-83
2022/12/25 10:57:21;;;;;;;106.78;50.55;;;;;;;10.44;100.00;101370.91;5036306;28;20377;-85
2022/12/25 10:59:48;;;;;;;110.53;51.85;;;;;;;10.30;100.00;101358.09;5026547;28;20543;-84
2022/12/25 11:02:26;;;;;;;111.70;50.95;;;;;;;10.37;100.00;101353.94;5028679;28;20052;-84
2022/12/25 11:05:04;;;;;;;110.18;51.55;;;;;;;10.40;100.00;101353.66;5034267;28;20422;-83
2022/12/25 11:07:32;;;;;;;102.55;50.53;;;;;;;10.29;100.00;101351.97;5028428;28;20038;-86
2022/12/25 11:10:19;;;;;;;104.38;47.78;;;;;;;10.36;100.00;101344.28;5011694;28;20091;-84
2022/12/25 11:12:45;;;;;;;107.72;48.92;;;;;;;10.30;100.00;101343.06;5036675;28;20480;-84
2022/12/25 11:15:32;;;;;;;99.50;48.33;;;;;;;10.18;100.00;101345.97;5016748;28;20029;-86
2022/12/25 11:17:58;;;;;;;100.20;46.85;;;;;;;10.38;100.00;101337.88;5029959;28;20034;-84
2022/12/25 11:20:24;;;;;;;97.22;45.83;;;;;;;10.57;100.00;101329.03;5032862;28;20484;-84
2022/12/25 11:22:50;;;;;;;98.72;49.00;;;;;;;10.53;100.00;101330.34;5032797;28;20171;-85
2022/12/25 11:25:26;;;;;;;102.25;47.00;;;;;;;10.62;100.00;101329.47;5037625;28;20037;-81
2022/12/25 11:27:57;;;;;;;95.93;46.72;;;;;;;10.58;100.00;101340.50;5022956;28;20053;-86
2022/12/25 11:30:25;;;;;;;107.82;48.97;;;;;;;10.53;100.00;101337.44;5035012;28;20045;-85
2022/12/25 11:32:54;;;;;;;96.47;45.53;;;;;;;10.45;100.00;101330.19;5051398;28;20092;-84
2022/12/25 11:35:26;;;;;;;101.78;47.22;;;;;;;10.35;100.00;101329.38;5044750;28;20496;-84
2022/12/25 11:37:53;;;;;;;94.10;45.42;;;;;;;10.29;100.00;101330.78;5021873;28;20029;-83
2022/12/25 11:40:26;;;;;;;103.07;47.30;;;;;;;10.26;100.00;101316.97;5044102;28;20033;-84
2022/12/25 11:42:57;;;;;;;100.75;47.30;;;;;;;10.17;100.00;101318.66;5039257;28;20030;-85
2022/12/25 11:45:28;;;;;;;102.68;46.53;;;;;;;10.28;100.00;101322.94;5035841;28;20064;-84
2022/12/25 11:48:18;;;;;;;97.43;47.15;;;;;;;10.25;100.00;101323.25;5036199;28;20044;-82
2022/12/25 11:50:53;;;;;;;109.40;48.22;;;;;;;10.13;100.00;101329.63;5039161;28;20076;-85
2022/12/25 11:53:27;;;;;;;106.22;48.75;;;;;;;10.04;100.00;101325.19;5036439;28;20559;-83
2022/12/25 11:56:03;;;;;;;113.03;51.30;;;;;;;9.96;100.00;101327.66;5035776;28;20100;-85
2022/12/25 11:58:42;;;;;;;111.40;53.50;;;;;;;9.79;100.00;101321.25;5038124;28;20041;-85
2022/12/25 12:01:25;;;;;;;111.63;51.88;;;;;;;9.84;100.00;101314.56;5036446;28;20456;-88
2022/12/25 12:03:51;;;;;;;121.68;53.58;;;;;;;9.93;100.00;101312.91;5037831;28;20029;-84
2022/12/25 12:06:27;;;;;;;112.07;51.33;;;;;;;10.07;100.00;101317.78;5039104;28;20092;-81
2022/12/25 12:09:04;;;;;;;114.55;52.35;;;;;;;10.09;100.00;101307.03;5023005;28;20046;-85
2022/12/25 12:11:40;;;;;;;120.78;53.67;;;;;;;10.27;100.00;101300.91;5040316;28;20117;-83
2022/12/25 12:14:24;;;;;;;106.00;48.05;;;;;;;10.20;100.00;101312.25;5016733;28;20099;-85
2022/12/25 12:16:49;;;;;;;102.75;48.03;;;;;;;10.27;100.00;101305.41;5033676;28;20033;-87
2022/12/25 12:19:41;;;;;;;100.70;48.15;;;;;;;10.21;100.00;101305.94;5015888;28;20037;-82
2022/12/25 12:22:16;;;;;;;95.95;46.20;;;;;;;10.21;100.00;101303.28;5032299;28;20065;-81
2022/12/25 12:24:43;;;;;;;98.38;47.17;;;;;;;10.24;100.00;101305.69;5036574;28;20033;-85
2022/12/25 12:27:21;;;;;;;94.75;44.55;;;;;;;10.48;100.00;101302.56;5042437;28;20045;-83
2022/12/25 12:29:56;;;;;;;102.97;47.17;;;;;;;10.47;100.00;101303.56;5045330;28;20041;-82
2022/12/25 12:32:33;;;;;;;92.10;45.00;;;;;;;10.63;100.00;101304.66;5037668;28;20034;-82
2022/12/25 12:35:11;;;;;;;103.53;45.25;;;;;;;10.50;100.00;101300.63;5036961;28;20121;-82
2022/12/25 12:37:39;;;;;;;93.95;45.45;;;;;;;10.30;100.00;101305.97;5037294;28;20029;-82
2022/12/25 12:40:20;;;;;;;98.32;46.10;;;;;;;10.25;100.00;101294.09;5033885;28;20026;-81
2022/12/25 12:42:49;;;;;;;99.13;47.28;;;;;;;10.42;100.00;101288.06;5034089;28;20044;-83
2022/12/25 12:45:27;;;;;;;95.93;44.92;;;;;;;10.44;100.00;101288.75;5037019;28;20034;-85
2022/12/25 12:47:53;;;;;;;102.05;46.38;;;;;;;10.21;100.00;101298.00;5019335;28;20037;-81
2022/12/25 12:50:39;;;;;;;100.13;46.20;;;;;;;10.31;100.00;101285.56;5035331;28;20171;-80
2022/12/25 12:53:20;;;;;;;94.28;43.65;;;;;;;10.54;100.00;101289.56;5033763;28;20025;-81
2022/12/25 12:55:46;;;;;;;109.43;47.30;;;;;;;10.53;100.00;101287.94;5034051;28;20057;-82
2022/12/25 12:58:33;;;;;;;97.05;45.60;;;;;;;10.54;100.00;101286.94;5033488;28;20049;-81
2022/12/25 13:01:20;;;;;;;101.45;46.72;;;;;;;10.34;100.00;101280.03;5028709;28;20955;-85